sensor_id;sensor_type;location;lat;lon;timestamp;P1;durP1;ratioP1;P2;durP2;ratioP2
8462;SDS011;4268;52.506;13.462;2023-08-01T00:00:57;4.60;;;4.20;;
8462;SDS011;4268;52.506;13.462;2023-08-01T00:03:23;5.20;;;4.33;;
8462;SDS011;4268;52.506;13.462;2023-08-01T00:05:49;5.00;;;4.50;;
8462;SDS011;4268;52.506;13.462;2023-08-01T00:08:14;5.53;;;4.67;;
8462;SDS011;4268;52.506;13.462;2023-08-01T00:10:40;4.67;;;4.30;;
8462;SDS011;4268;52.506;13.462;2023-08-01T00:13:06;5.13;;;4.67;;
8462;SDS011;4268;52.506;13.462;2023-08-01T00:15:33;5.37;;;4.90;;
8462;SDS011;4268;52.506;13.462;2023-08-01T00:17:59;4.70;;;4.30;;
8462;SDS011;4268;52.506;13.462;2023-08-01T00:20:25;5.00;;;4.20;;
8462;SDS011;4268;52.506;13.462;2023-08-01T00:22:52;4.37;;;4.07;;
8462;SDS011;4268;52.506;13.462;2023-08-01T00:25:17;4.80;;;4.13;;
8462;SDS011;4268;52.506;13.462;2023-08-01T00:27:43;4.93;;;4.50;;
8462;SDS011;4268;52.506;13.462;2023-08-01T00:30:09;5.37;;;4.90;;
8462;SDS011;4268;52.506;13.462;2023-08-01T00:32:36;5.60;;;5.17;;
8462;SDS011;4268;52.506;13.462;2023-08-01T00:35:02;5.47;;;4.97;;
8462;SDS011;4268;52.506;13.462;2023-08-01T00:37:28;4.67;;;4.27;;
8462;SDS011;4268;52.506;13.462;2023-08-01T00:39:54;4.90;;;4.60;;
8462;SDS011;4268;52.506;13.462;2023-08-01T00:42:20;4.50;;;4.20;;
8462;SDS011;4268;52.506;13.462;2023-08-01T00:44:45;4.07;;;3.80;;
8462;SDS011;4268;52.506;13.462;2023-08-01T00:47:13;3.83;;;3.53;;
8462;SDS011;4268;52.506;13.462;2023-08-01T00:49:39;4.20;;;3.90;;
8462;SDS011;4268;52.506;13.462;2023-08-01T00:52:05;3.90;;;3.53;;
8462;SDS011;4268;52.506;13.462;2023-08-01T00:54:32;4.00;;;3.70;;
8462;SDS011;4268;52.506;13.462;2023-08-01T00:57:02;3.83;;;3.60;;
8462;SDS011;4268;52.506;13.462;2023-08-01T00:59:31;4.13;;;3.83;;
8462;SDS011;4268;52.506;13.462;2023-08-01T01:01:57;4.00;;;3.70;;
8462;SDS011;4268;52.506;13.462;2023-08-01T01:04:25;5.63;;;4.20;;
8462;SDS011;4268;52.506;13.462;2023-08-01T01:06:53;4.27;;;3.97;;
8462;SDS011;4268;52.506;13.462;2023-08-01T01:09:27;4.67;;;4.30;;
8462;SDS011;4268;52.506;13.462;2023-08-01T01:11:56;4.67;;;4.37;;
8462;SDS011;4268;52.506;13.462;2023-08-01T01:14:22;5.43;;;5.03;;
8462;SDS011;4268;52.506;13.462;2023-08-01T01:16:49;6.40;;;6.00;;
8462;SDS011;4268;52.506;13.462;2023-08-01T01:19:16;8.17;;;7.67;;
8462;SDS011;4268;52.506;13.462;2023-08-01T01:21:42;7.73;;;7.33;;
8462;SDS011;4268;52.506;13.462;2023-08-01T01:24:09;8.10;;;7.57;;
8462;SDS011;4268;52.506;13.462;2023-08-01T01:26:36;7.57;;;7.17;;
8462;SDS011;4268;52.506;13.462;2023-08-01T01:29:03;10.77;;;10.17;;
8462;SDS011;4268;52.506;13.462;2023-08-01T01:31:31;17.03;;;16.13;;
8462;SDS011;4268;52.506;13.462;2023-08-01T01:33:59;19.87;;;18.77;;
8462;SDS011;4268;52.506;13.462;2023-08-01T01:36:25;21.03;;;19.97;;
8462;SDS011;4268;52.506;13.462;2023-08-01T01:38:50;21.27;;;20.17;;
8462;SDS011;4268;52.506;13.462;2023-08-01T01:41:16;16.23;;;15.43;;
8462;SDS011;4268;52.506;13.462;2023-08-01T01:43:42;14.33;;;13.63;;
8462;SDS011;4268;52.506;13.462;2023-08-01T01:46:07;14.57;;;13.77;;
8462;SDS011;4268;52.506;13.462;2023-08-01T01:48:33;14.00;;;13.20;;
8462;SDS011;4268;52.506;13.462;2023-08-01T01:50:59;14.83;;;13.93;;
8462;SDS011;4268;52.506;13.462;2023-08-01T01:53:25;16.97;;;16.13;;
8462;SDS011;4268;52.506;13.462;2023-08-01T01:55:50;18.20;;;17.20;;
8462;SDS011;4268;52.506;13.462;2023-08-01T01:58:16;18.17;;;17.17;;
8462;SDS011;4268;52.506;13.462;2023-08-01T02:00:42;18.10;;;17.20;;
8462;SDS011;4268;52.506;13.462;2023-08-01T02:03:07;15.03;;;14.13;;
8462;SDS011;4268;52.506;13.462;2023-08-01T02:05:35;16.13;;;15.23;;
8462;SDS011;4268;52.506;13.462;2023-08-01T02:08:01;13.43;;;12.73;;
8462;SDS011;4268;52.506;13.462;2023-08-01T02:10:27;13.23;;;12.53;;
8462;SDS011;4268;52.506;13.462;2023-08-01T02:12:52;12.87;;;12.17;;
8462;SDS011;4268;52.506;13.462;2023-08-01T02:15:18;11.93;;;11.33;;
8462;SDS011;4268;52.506;13.462;2023-08-01T02:17:43;11.80;;;11.20;;
8462;SDS011;4268;52.506;13.462;2023-08-01T02:20:09;10.90;;;10.30;;
8462;SDS011;4268;52.506;13.462;2023-08-01T02:22:35;9.70;;;9.10;;
8462;SDS011;4268;52.506;13.462;2023-08-01T02:25:02;8.50;;;7.97;;
8462;SDS011;4268;52.506;13.462;2023-08-01T02:27:28;9.63;;;9.03;;
8462;SDS011;4268;52.506;13.462;2023-08-01T02:29:54;12.10;;;11.40;;
8462;SDS011;4268;52.506;13.462;2023-08-01T02:32:19;13.43;;;12.63;;
8462;SDS011;4268;52.506;13.462;2023-08-01T02:34:47;14.43;;;13.67;;
8462;SDS011;4268;52.506;13.462;2023-08-01T02:37:13;17.20;;;16.13;;
8462;SDS011;4268;52.506;13.462;2023-08-01T02:39:39;18.57;;;17.57;;
8462;SDS011;4268;52.506;13.462;2023-08-01T02:42:05;18.63;;;17.63;;
8462;SDS011;4268;52.506;13.462;2023-08-01T02:44:31;18.90;;;17.90;;
8462;SDS011;4268;52.506;13.462;2023-08-01T02:46:56;22.53;;;21.27;;
8462;SDS011;4268;52.506;13.462;2023-08-01T02:49:22;16.17;;;15.27;;
8462;SDS011;4268;52.506;13.462;2023-08-01T02:51:47;17.50;;;16.50;;
8462;SDS011;4268;52.506;13.462;2023-08-01T02:54:13;17.70;;;16.67;;
8462;SDS011;4268;52.506;13.462;2023-08-01T02:56:38;17.13;;;16.13;;
8462;SDS011;4268;52.506;13.462;2023-08-01T02:59:06;18.00;;;17.10;;
8462;SDS011;4268;52.506;13.462;2023-08-01T03:01:35;14.37;;;13.57;;
8462;SDS011;4268;52.506;13.462;2023-08-01T03:04:03;13.03;;;12.30;;
8462;SDS011;4268;52.506;13.462;2023-08-01T03:06:33;13.53;;;12.83;;
8462;SDS011;4268;52.506;13.462;2023-08-01T03:08:59;13.63;;;12.73;;
8462;SDS011;4268;52.506;13.462;2023-08-01T03:11:26;13.67;;;12.87;;
8462;SDS011;4268;52.506;13.462;2023-08-01T03:13:52;13.57;;;12.80;;
8462;SDS011;4268;52.506;13.462;2023-08-01T03:16:17;13.43;;;12.63;;
8462;SDS011;4268;52.506;13.462;2023-08-01T03:18:43;12.10;;;11.40;;
8462;SDS011;4268;52.506;13.462;2023-08-01T03:21:08;16.83;;;15.93;;
8462;SDS011;4268;52.506;13.462;2023-08-01T03:23:37;12.50;;;11.80;;
8462;SDS011;4268;52.506;13.462;2023-08-01T03:26:05;13.20;;;12.30;;
8462;SDS011;4268;52.506;13.462;2023-08-01T03:28:31;12.57;;;11.87;;
8462;SDS011;4268;52.506;13.462;2023-08-01T03:30:56;13.67;;;12.77;;
8462;SDS011;4268;52.506;13.462;2023-08-01T03:33:22;10.47;;;9.67;;
8462;SDS011;4268;52.506;13.462;2023-08-01T03:35:47;9.53;;;8.93;;
8462;SDS011;4268;52.506;13.462;2023-08-01T03:38:13;10.47;;;9.87;;
8462;SDS011;4268;52.506;13.462;2023-08-01T03:40:39;9.93;;;9.33;;
8462;SDS011;4268;52.506;13.462;2023-08-01T03:43:05;9.37;;;8.77;;
8462;SDS011;4268;52.506;13.462;2023-08-01T03:45:31;9.70;;;9.00;;
8462;SDS011;4268;52.506;13.462;2023-08-01T03:47:57;9.43;;;8.93;;
8462;SDS011;4268;52.506;13.462;2023-08-01T03:50:22;10.37;;;9.77;;
8462;SDS011;4268;52.506;13.462;2023-08-01T03:52:48;9.60;;;9.00;;
8462;SDS011;4268;52.506;13.462;2023-08-01T03:55:13;10.83;;;10.13;;
8462;SDS011;4268;52.506;13.462;2023-08-01T03:57:39;9.13;;;8.53;;
8462;SDS011;4268;52.506;13.462;2023-08-01T04:00:05;8.87;;;8.27;;
8462;SDS011;4268;52.506;13.462;2023-08-01T04:02:38;8.67;;;8.07;;
8462;SDS011;4268;52.506;13.462;2023-08-01T04:05:05;9.37;;;8.67;;
8462;SDS011;4268;52.506;13.462;2023-08-01T04:07:30;10.10;;;9.40;;
8462;SDS011;4268;52.506;13.462;2023-08-01T04:09:56;10.03;;;9.27;;
8462;SDS011;4268;52.506;13.462;2023-08-01T04:12:21;9.93;;;9.33;;
8462;SDS011;4268;52.506;13.462;2023-08-01T04:14:47;10.77;;;10.10;;
8462;SDS011;4268;52.506;13.462;2023-08-01T04:17:13;9.70;;;9.10;;
8462;SDS011;4268;52.506;13.462;2023-08-01T04:19:38;10.00;;;9.30;;
8462;SDS011;4268;52.506;13.462;2023-08-01T04:22:04;9.43;;;8.83;;
8462;SDS011;4268;52.506;13.462;2023-08-01T04:24:29;9.03;;;8.43;;
8462;SDS011;4268;52.506;13.462;2023-08-01T04:26:55;8.93;;;8.17;;
8462;SDS011;4268;52.506;13.462;2023-08-01T04:29:21;8.83;;;8.33;;
8462;SDS011;4268;52.506;13.462;2023-08-01T04:31:47;8.80;;;8.20;;
8462;SDS011;4268;52.506;13.462;2023-08-01T04:34:13;7.27;;;6.77;;
8462;SDS011;4268;52.506;13.462;2023-08-01T04:36:38;8.63;;;8.03;;
8462;SDS011;4268;52.506;13.462;2023-08-01T04:39:04;9.27;;;8.70;;
8462;SDS011;4268;52.506;13.462;2023-08-01T04:41:30;9.23;;;8.63;;
8462;SDS011;4268;52.506;13.462;2023-08-01T04:43:56;7.67;;;7.17;;
8462;SDS011;4268;52.506;13.462;2023-08-01T04:46:22;6.30;;;5.70;;
8462;SDS011;4268;52.506;13.462;2023-08-01T04:48:47;6.30;;;5.80;;
8462;SDS011;4268;52.506;13.462;2023-08-01T04:51:13;5.43;;;5.03;;
8462;SDS011;4268;52.506;13.462;2023-08-01T04:53:38;5.83;;;5.40;;
8462;SDS011;4268;52.506;13.462;2023-08-01T04:56:04;5.40;;;5.00;;
8462;SDS011;4268;52.506;13.462;2023-08-01T04:58:30;5.40;;;5.00;;
8462;SDS011;4268;52.506;13.462;2023-08-01T05:00:55;5.70;;;5.20;;
8462;SDS011;4268;52.506;13.462;2023-08-01T05:03:21;5.53;;;5.13;;
8462;SDS011;4268;52.506;13.462;2023-08-01T05:05:47;5.30;;;4.80;;
8462;SDS011;4268;52.506;13.462;2023-08-01T05:08:12;5.50;;;5.10;;
8462;SDS011;4268;52.506;13.462;2023-08-01T05:10:38;5.10;;;4.80;;
8462;SDS011;4268;52.506;13.462;2023-08-01T05:13:03;5.70;;;5.30;;
8462;SDS011;4268;52.506;13.462;2023-08-01T05:15:29;7.07;;;6.47;;
8462;SDS011;4268;52.506;13.462;2023-08-01T05:17:54;7.80;;;7.30;;
8462;SDS011;4268;52.506;13.462;2023-08-01T05:20:20;9.70;;;9.10;;
8462;SDS011;4268;52.506;13.462;2023-08-01T05:22:47;12.40;;;11.40;;
8462;SDS011;4268;52.506;13.462;2023-08-01T05:25:13;9.30;;;8.70;;
8462;SDS011;4268;52.506;13.462;2023-08-01T05:27:38;9.47;;;8.97;;
8462;SDS011;4268;52.506;13.462;2023-08-01T05:30:04;9.80;;;9.30;;
8462;SDS011;4268;52.506;13.462;2023-08-01T05:32:30;8.20;;;7.70;;
8462;SDS011;4268;52.506;13.462;2023-08-01T05:34:56;6.80;;;6.20;;
8462;SDS011;4268;52.506;13.462;2023-08-01T05:37:21;6.80;;;6.33;;
8462;SDS011;4268;52.506;13.462;2023-08-01T05:39:47;6.17;;;5.60;;
8462;SDS011;4268;52.506;13.462;2023-08-01T05:42:13;7.23;;;6.00;;
8462;SDS011;4268;52.506;13.462;2023-08-01T05:44:38;7.33;;;6.73;;
8462;SDS011;4268;52.506;13.462;2023-08-01T05:47:04;7.80;;;7.30;;
8462;SDS011;4268;52.506;13.462;2023-08-01T05:49:30;7.27;;;6.77;;
8462;SDS011;4268;52.506;13.462;2023-08-01T05:51:55;7.43;;;6.97;;
8462;SDS011;4268;52.506;13.462;2023-08-01T05:54:22;7.57;;;7.07;;
8462;SDS011;4268;52.506;13.462;2023-08-01T05:56:47;6.70;;;6.30;;
8462;SDS011;4268;52.506;13.462;2023-08-01T05:59:13;5.10;;;4.80;;
8462;SDS011;4268;52.506;13.462;2023-08-01T06:01:38;5.80;;;5.40;;
8462;SDS011;4268;52.506;13.462;2023-08-01T06:04:04;5.83;;;5.43;;
8462;SDS011;4268;52.506;13.462;2023-08-01T06:06:30;5.63;;;5.33;;
8462;SDS011;4268;52.506;13.462;2023-08-01T06:08:55;4.97;;;4.53;;
8462;SDS011;4268;52.506;13.462;2023-08-01T06:11:21;4.77;;;4.47;;
8462;SDS011;4268;52.506;13.462;2023-08-01T06:13:47;4.67;;;4.37;;
8462;SDS011;4268;52.506;13.462;2023-08-01T06:16:12;4.40;;;4.10;;
8462;SDS011;4268;52.506;13.462;2023-08-01T06:18:38;4.27;;;3.97;;
8462;SDS011;4268;52.506;13.462;2023-08-01T06:21:03;4.50;;;4.20;;
8462;SDS011;4268;52.506;13.462;2023-08-01T06:23:29;5.30;;;4.90;;
8462;SDS011;4268;52.506;13.462;2023-08-01T06:25:55;5.50;;;5.00;;
8462;SDS011;4268;52.506;13.462;2023-08-01T06:28:20;4.93;;;4.63;;
8462;SDS011;4268;52.506;13.462;2023-08-01T06:30:46;4.90;;;4.57;;
8462;SDS011;4268;52.506;13.462;2023-08-01T06:33:11;5.73;;;5.27;;
8462;SDS011;4268;52.506;13.462;2023-08-01T06:35:37;5.50;;;5.10;;
8462;SDS011;4268;52.506;13.462;2023-08-01T06:38:03;5.07;;;4.70;;
8462;SDS011;4268;52.506;13.462;2023-08-01T06:40:28;4.47;;;4.07;;
8462;SDS011;4268;52.506;13.462;2023-08-01T06:42:54;4.83;;;4.43;;
8462;SDS011;4268;52.506;13.462;2023-08-01T06:45:19;5.60;;;5.20;;
8462;SDS011;4268;52.506;13.462;2023-08-01T06:47:45;4.93;;;4.63;;
8462;SDS011;4268;52.506;13.462;2023-08-01T06:50:10;4.50;;;4.20;;
8462;SDS011;4268;52.506;13.462;2023-08-01T06:52:36;4.50;;;4.10;;
8462;SDS011;4268;52.506;13.462;2023-08-01T06:55:02;4.03;;;3.83;;
8462;SDS011;4268;52.506;13.462;2023-08-01T06:57:28;4.23;;;4.03;;
8462;SDS011;4268;52.506;13.462;2023-08-01T06:59:54;5.27;;;4.97;;
8462;SDS011;4268;52.506;13.462;2023-08-01T07:02:19;4.63;;;4.33;;
8462;SDS011;4268;52.506;13.462;2023-08-01T07:04:45;4.43;;;4.13;;
8462;SDS011;4268;52.506;13.462;2023-08-01T07:07:10;4.00;;;3.70;;
8462;SDS011;4268;52.506;13.462;2023-08-01T07:09:36;4.40;;;4.10;;
8462;SDS011;4268;52.506;13.462;2023-08-01T07:12:02;3.90;;;3.70;;
8462;SDS011;4268;52.506;13.462;2023-08-01T07:14:28;5.30;;;4.90;;
8462;SDS011;4268;52.506;13.462;2023-08-01T07:16:54;4.03;;;3.83;;
8462;SDS011;4268;52.506;13.462;2023-08-01T07:19:19;4.00;;;3.70;;
8462;SDS011;4268;52.506;13.462;2023-08-01T07:21:45;4.40;;;4.10;;
8462;SDS011;4268;52.506;13.462;2023-08-01T07:24:13;3.80;;;3.60;;
8462;SDS011;4268;52.506;13.462;2023-08-01T07:26:39;3.70;;;3.50;;
8462;SDS011;4268;52.506;13.462;2023-08-01T07:29:05;3.80;;;3.50;;
8462;SDS011;4268;52.506;13.462;2023-08-01T07:31:33;3.87;;;3.60;;
8462;SDS011;4268;52.506;13.462;2023-08-01T07:33:58;4.47;;;4.17;;
8462;SDS011;4268;52.506;13.462;2023-08-01T07:36:24;4.30;;;3.90;;
8462;SDS011;4268;52.506;13.462;2023-08-01T07:38:50;5.27;;;4.87;;
8462;SDS011;4268;52.506;13.462;2023-08-01T07:41:15;4.63;;;4.33;;
8462;SDS011;4268;52.506;13.462;2023-08-01T07:43:41;4.10;;;3.80;;
8462;SDS011;4268;52.506;13.462;2023-08-01T07:46:07;3.80;;;3.60;;
8462;SDS011;4268;52.506;13.462;2023-08-01T07:48:34;4.00;;;3.70;;
8462;SDS011;4268;52.506;13.462;2023-08-01T07:51:00;3.60;;;3.40;;
8462;SDS011;4268;52.506;13.462;2023-08-01T07:53:26;3.83;;;3.63;;
8462;SDS011;4268;52.506;13.462;2023-08-01T07:55:52;4.13;;;3.83;;
8462;SDS011;4268;52.506;13.462;2023-08-01T07:58:18;3.93;;;3.73;;
8462;SDS011;4268;52.506;13.462;2023-08-01T08:00:44;4.00;;;3.80;;
8462;SDS011;4268;52.506;13.462;2023-08-01T08:03:09;3.77;;;3.40;;
8462;SDS011;4268;52.506;13.462;2023-08-01T08:05:35;4.03;;;3.73;;
8462;SDS011;4268;52.506;13.462;2023-08-01T08:08:03;3.90;;;3.70;;
8462;SDS011;4268;52.506;13.462;2023-08-01T08:10:30;4.03;;;3.73;;
8462;SDS011;4268;52.506;13.462;2023-08-01T08:12:55;3.77;;;3.50;;
8462;SDS011;4268;52.506;13.462;2023-08-01T08:15:21;5.23;;;4.97;;
8462;SDS011;4268;52.506;13.462;2023-08-01T08:17:48;3.50;;;3.40;;
8462;SDS011;4268;52.506;13.462;2023-08-01T08:20:14;3.03;;;2.83;;
8462;SDS011;4268;52.506;13.462;2023-08-01T08:22:40;3.10;;;2.90;;
8462;SDS011;4268;52.506;13.462;2023-08-01T08:25:06;3.00;;;2.90;;
8462;SDS011;4268;52.506;13.462;2023-08-01T08:27:32;3.70;;;3.50;;
8462;SDS011;4268;52.506;13.462;2023-08-01T08:29:57;3.13;;;3.00;;
8462;SDS011;4268;52.506;13.462;2023-08-01T08:32:24;3.17;;;2.97;;
8462;SDS011;4268;52.506;13.462;2023-08-01T08:34:50;2.90;;;2.70;;
8462;SDS011;4268;52.506;13.462;2023-08-01T08:37:16;2.93;;;2.80;;
8462;SDS011;4268;52.506;13.462;2023-08-01T08:39:41;3.10;;;2.90;;
8462;SDS011;4268;52.506;13.462;2023-08-01T08:42:08;3.50;;;3.30;;
8462;SDS011;4268;52.506;13.462;2023-08-01T08:44:39;2.83;;;2.70;;
8462;SDS011;4268;52.506;13.462;2023-08-01T08:47:08;3.13;;;2.90;;
8462;SDS011;4268;52.506;13.462;2023-08-01T08:49:36;2.93;;;2.83;;
8462;SDS011;4268;52.506;13.462;2023-08-01T08:52:02;3.50;;;3.17;;
8462;SDS011;4268;52.506;13.462;2023-08-01T08:54:28;4.00;;;3.70;;
8462;SDS011;4268;52.506;13.462;2023-08-01T08:56:55;4.37;;;4.07;;
8462;SDS011;4268;52.506;13.462;2023-08-01T08:59:21;4.07;;;3.87;;
8462;SDS011;4268;52.506;13.462;2023-08-01T09:01:47;3.60;;;3.40;;
8462;SDS011;4268;52.506;13.462;2023-08-01T09:04:13;3.10;;;3.00;;
8462;SDS011;4268;52.506;13.462;2023-08-01T09:06:46;3.43;;;3.23;;
8462;SDS011;4268;52.506;13.462;2023-08-01T09:09:14;2.80;;;2.70;;
8462;SDS011;4268;52.506;13.462;2023-08-01T09:11:41;2.73;;;2.63;;
8462;SDS011;4268;52.506;13.462;2023-08-01T09:14:10;3.37;;;3.17;;
8462;SDS011;4268;52.506;13.462;2023-08-01T09:16:35;3.30;;;3.10;;
8462;SDS011;4268;52.506;13.462;2023-08-01T09:19:01;3.57;;;3.37;;
8462;SDS011;4268;52.506;13.462;2023-08-01T09:21:27;3.20;;;3.00;;
8462;SDS011;4268;52.506;13.462;2023-08-01T09:23:58;3.07;;;2.77;;
8462;SDS011;4268;52.506;13.462;2023-08-01T09:26:32;2.70;;;2.60;;
8462;SDS011;4268;52.506;13.462;2023-08-01T09:28:58;2.90;;;2.70;;
8462;SDS011;4268;52.506;13.462;2023-08-01T09:31:27;2.40;;;2.30;;
8462;SDS011;4268;52.506;13.462;2023-08-01T09:33:54;2.87;;;2.67;;
8462;SDS011;4268;52.506;13.462;2023-08-01T09:36:23;2.90;;;2.80;;
8462;SDS011;4268;52.506;13.462;2023-08-01T09:38:49;2.80;;;2.70;;
8462;SDS011;4268;52.506;13.462;2023-08-01T09:41:18;3.57;;;3.27;;
8462;SDS011;4268;52.506;13.462;2023-08-01T09:43:47;2.73;;;2.60;;
8462;SDS011;4268;52.506;13.462;2023-08-01T09:46:14;2.17;;;2.07;;
8462;SDS011;4268;52.506;13.462;2023-08-01T09:48:40;3.10;;;2.90;;
8462;SDS011;4268;52.506;13.462;2023-08-01T09:53:45;3.80;;;3.60;;
8462;SDS011;4268;52.506;13.462;2023-08-01T09:56:13;2.90;;;2.80;;
8462;SDS011;4268;52.506;13.462;2023-08-01T09:58:42;2.77;;;2.67;;
8462;SDS011;4268;52.506;13.462;2023-08-01T10:01:09;3.03;;;2.87;;
8462;SDS011;4268;52.506;13.462;2023-08-01T10:03:35;3.00;;;2.80;;
8462;SDS011;4268;52.506;13.462;2023-08-01T10:06:01;3.10;;;2.90;;
8462;SDS011;4268;52.506;13.462;2023-08-01T10:08:28;2.40;;;2.30;;
8462;SDS011;4268;52.506;13.462;2023-08-01T10:10:54;2.00;;;2.00;;
8462;SDS011;4268;52.506;13.462;2023-08-01T10:13:22;1.73;;;1.73;;
8462;SDS011;4268;52.506;13.462;2023-08-01T10:15:49;2.00;;;1.90;;
8462;SDS011;4268;52.506;13.462;2023-08-01T10:18:16;1.63;;;1.60;;
8462;SDS011;4268;52.506;13.462;2023-08-01T10:20:42;1.50;;;1.50;;
8462;SDS011;4268;52.506;13.462;2023-08-01T10:23:09;1.70;;;1.50;;
8462;SDS011;4268;52.506;13.462;2023-08-01T10:25:35;1.57;;;1.57;;
8462;SDS011;4268;52.506;13.462;2023-08-01T10:28:03;2.20;;;2.10;;
8462;SDS011;4268;52.506;13.462;2023-08-01T10:30:30;1.87;;;1.77;;
8462;SDS011;4268;52.506;13.462;2023-08-01T10:32:56;2.30;;;2.20;;
8462;SDS011;4268;52.506;13.462;2023-08-01T10:35:33;2.60;;;2.50;;
8462;SDS011;4268;52.506;13.462;2023-08-01T10:38:10;2.50;;;2.40;;
8462;SDS011;4268;52.506;13.462;2023-08-01T10:40:40;2.60;;;2.50;;
8462;SDS011;4268;52.506;13.462;2023-08-01T10:43:20;3.40;;;3.20;;
8462;SDS011;4268;52.506;13.462;2023-08-01T10:45:47;3.20;;;3.10;;
8462;SDS011;4268;52.506;13.462;2023-08-01T10:48:12;3.03;;;2.93;;
8462;SDS011;4268;52.506;13.462;2023-08-01T10:50:39;2.50;;;2.40;;
8462;SDS011;4268;52.506;13.462;2023-08-01T10:53:08;2.70;;;2.60;;
8462;SDS011;4268;52.506;13.462;2023-08-01T10:55:53;3.03;;;2.83;;
8462;SDS011;4268;52.506;13.462;2023-08-01T10:58:18;2.90;;;2.70;;
8462;SDS011;4268;52.506;13.462;2023-08-01T11:00:44;2.93;;;2.73;;
8462;SDS011;4268;52.506;13.462;2023-08-01T11:03:10;3.73;;;3.43;;
8462;SDS011;4268;52.506;13.462;2023-08-01T11:05:35;3.60;;;3.40;;
8462;SDS011;4268;52.506;13.462;2023-08-01T11:08:02;3.37;;;3.17;;
8462;SDS011;4268;52.506;13.462;2023-08-01T11:10:29;3.30;;;2.77;;
8462;SDS011;4268;52.506;13.462;2023-08-01T11:12:55;2.70;;;2.60;;
8462;SDS011;4268;52.506;13.462;2023-08-01T11:15:22;3.50;;;3.40;;
8462;SDS011;4268;52.506;13.462;2023-08-01T11:17:49;4.80;;;4.60;;
8462;SDS011;4268;52.506;13.462;2023-08-01T11:20:16;4.83;;;4.57;;
8462;SDS011;4268;52.506;13.462;2023-08-01T11:22:56;4.17;;;3.97;;
8462;SDS011;4268;52.506;13.462;2023-08-01T11:25:35;4.10;;;3.90;;
8462;SDS011;4268;52.506;13.462;2023-08-01T11:28:06;3.90;;;3.73;;
8462;SDS011;4268;52.506;13.462;2023-08-01T11:30:33;4.00;;;3.80;;
8462;SDS011;4268;52.506;13.462;2023-08-01T11:33:01;3.90;;;3.70;;
8462;SDS011;4268;52.506;13.462;2023-08-01T11:35:29;3.80;;;3.70;;
8462;SDS011;4268;52.506;13.462;2023-08-01T11:37:55;3.70;;;3.60;;
8462;SDS011;4268;52.506;13.462;2023-08-01T11:40:23;4.47;;;4.27;;
8462;SDS011;4268;52.506;13.462;2023-08-01T11:42:50;3.70;;;3.60;;
8462;SDS011;4268;52.506;13.462;2023-08-01T11:45:16;4.13;;;3.83;;
8462;SDS011;4268;52.506;13.462;2023-08-01T11:47:46;4.40;;;4.10;;
8462;SDS011;4268;52.506;13.462;2023-08-01T11:50:12;5.23;;;4.83;;
8462;SDS011;4268;52.506;13.462;2023-08-01T11:52:38;3.50;;;3.30;;
8462;SDS011;4268;52.506;13.462;2023-08-01T11:55:04;3.10;;;2.90;;
8462;SDS011;4268;52.506;13.462;2023-08-01T11:57:30;3.87;;;3.57;;
8462;SDS011;4268;52.506;13.462;2023-08-01T11:59:56;4.03;;;3.77;;
8462;SDS011;4268;52.506;13.462;2023-08-01T12:02:27;4.17;;;3.97;;
8462;SDS011;4268;52.506;13.462;2023-08-01T12:04:57;4.10;;;3.90;;
8462;SDS011;4268;52.506;13.462;2023-08-01T12:07:25;5.03;;;4.63;;
8462;SDS011;4268;52.506;13.462;2023-08-01T12:09:54;4.30;;;4.10;;
8462;SDS011;4268;52.506;13.462;2023-08-01T12:12:28;4.27;;;4.07;;
8462;SDS011;4268;52.506;13.462;2023-08-01T12:14:55;4.57;;;4.27;;
8462;SDS011;4268;52.506;13.462;2023-08-01T12:17:22;4.53;;;4.23;;
8462;SDS011;4268;52.506;13.462;2023-08-01T12:19:49;4.17;;;3.87;;
8462;SDS011;4268;52.506;13.462;2023-08-01T12:22:15;4.40;;;4.10;;
8462;SDS011;4268;52.506;13.462;2023-08-01T12:24:40;4.47;;;4.17;;
8462;SDS011;4268;52.506;13.462;2023-08-01T12:27:07;4.23;;;3.93;;
8462;SDS011;4268;52.506;13.462;2023-08-01T12:29:34;4.47;;;4.07;;
8462;SDS011;4268;52.506;13.462;2023-08-01T12:32:01;4.07;;;3.67;;
8462;SDS011;4268;52.506;13.462;2023-08-01T12:34:29;4.70;;;4.40;;
8462;SDS011;4268;52.506;13.462;2023-08-01T12:36:56;5.30;;;5.00;;
8462;SDS011;4268;52.506;13.462;2023-08-01T12:39:23;4.67;;;4.30;;
8462;SDS011;4268;52.506;13.462;2023-08-01T12:41:51;4.33;;;4.03;;
8462;SDS011;4268;52.506;13.462;2023-08-01T12:44:19;4.63;;;4.23;;
8462;SDS011;4268;52.506;13.462;2023-08-01T12:46:45;3.80;;;3.50;;
8462;SDS011;4268;52.506;13.462;2023-08-01T12:49:11;3.67;;;3.40;;
8462;SDS011;4268;52.506;13.462;2023-08-01T12:51:38;3.23;;;3.03;;
8462;SDS011;4268;52.506;13.462;2023-08-01T12:54:03;3.73;;;3.43;;
8462;SDS011;4268;52.506;13.462;2023-08-01T12:56:29;4.30;;;4.00;;
8462;SDS011;4268;52.506;13.462;2023-08-01T12:58:56;4.50;;;4.10;;
8462;SDS011;4268;52.506;13.462;2023-08-01T13:01:22;4.40;;;4.00;;
8462;SDS011;4268;52.506;13.462;2023-08-01T13:03:47;4.37;;;4.07;;
8462;SDS011;4268;52.506;13.462;2023-08-01T13:06:14;4.97;;;4.67;;
8462;SDS011;4268;52.506;13.462;2023-08-01T13:08:39;4.57;;;4.27;;
8462;SDS011;4268;52.506;13.462;2023-08-01T13:11:10;4.70;;;4.40;;
8462;SDS011;4268;52.506;13.462;2023-08-01T13:13:37;3.97;;;3.77;;
8462;SDS011;4268;52.506;13.462;2023-08-01T13:16:16;4.10;;;3.80;;
8462;SDS011;4268;52.506;13.462;2023-08-01T13:18:42;4.73;;;4.43;;
8462;SDS011;4268;52.506;13.462;2023-08-01T13:21:09;3.90;;;3.60;;
8462;SDS011;4268;52.506;13.462;2023-08-01T13:23:35;3.73;;;3.43;;
8462;SDS011;4268;52.506;13.462;2023-08-01T13:26:01;3.60;;;3.30;;
8462;SDS011;4268;52.506;13.462;2023-08-01T13:28:27;4.90;;;3.30;;
8462;SDS011;4268;52.506;13.462;2023-08-01T13:30:53;4.27;;;3.33;;
8462;SDS011;4268;52.506;13.462;2023-08-01T13:33:18;3.10;;;2.90;;
8462;SDS011;4268;52.506;13.462;2023-08-01T13:35:45;3.40;;;3.10;;
8462;SDS011;4268;52.506;13.462;2023-08-01T13:38:11;3.47;;;3.27;;
8462;SDS011;4268;52.506;13.462;2023-08-01T13:40:37;6.73;;;3.50;;
8462;SDS011;4268;52.506;13.462;2023-08-01T13:43:03;3.30;;;3.10;;
8462;SDS011;4268;52.506;13.462;2023-08-01T13:45:32;4.30;;;3.90;;
8462;SDS011;4268;52.506;13.462;2023-08-01T13:47:58;3.80;;;3.47;;
8462;SDS011;4268;52.506;13.462;2023-08-01T13:50:24;3.40;;;3.20;;
8462;SDS011;4268;52.506;13.462;2023-08-01T13:52:50;3.40;;;3.20;;
8462;SDS011;4268;52.506;13.462;2023-08-01T13:55:16;3.20;;;3.00;;
8462;SDS011;4268;52.506;13.462;2023-08-01T13:57:43;3.20;;;3.00;;
8462;SDS011;4268;52.506;13.462;2023-08-01T14:00:09;3.57;;;3.30;;
8462;SDS011;4268;52.506;13.462;2023-08-01T14:02:35;3.70;;;3.40;;
8462;SDS011;4268;52.506;13.462;2023-08-01T14:05:01;3.57;;;3.27;;
8462;SDS011;4268;52.506;13.462;2023-08-01T14:07:27;3.53;;;3.23;;
8462;SDS011;4268;52.506;13.462;2023-08-01T14:09:52;3.63;;;3.33;;
8462;SDS011;4268;52.506;13.462;2023-08-01T14:12:18;3.30;;;3.00;;
8462;SDS011;4268;52.506;13.462;2023-08-01T14:14:44;4.03;;;3.50;;
8462;SDS011;4268;52.506;13.462;2023-08-01T14:17:10;3.73;;;3.20;;
8462;SDS011;4268;52.506;13.462;2023-08-01T14:19:36;3.30;;;3.00;;
8462;SDS011;4268;52.506;13.462;2023-08-01T14:22:01;3.40;;;3.10;;
8462;SDS011;4268;52.506;13.462;2023-08-01T14:24:27;3.50;;;3.20;;
8462;SDS011;4268;52.506;13.462;2023-08-01T14:26:53;3.30;;;3.00;;
8462;SDS011;4268;52.506;13.462;2023-08-01T14:29:18;3.03;;;2.90;;
8462;SDS011;4268;52.506;13.462;2023-08-01T14:31:47;3.53;;;3.23;;
8462;SDS011;4268;52.506;13.462;2023-08-01T14:34:14;3.00;;;2.80;;
8462;SDS011;4268;52.506;13.462;2023-08-01T14:36:40;3.37;;;3.07;;
8462;SDS011;4268;52.506;13.462;2023-08-01T14:39:06;3.40;;;3.10;;
8462;SDS011;4268;52.506;13.462;2023-08-01T14:41:31;3.50;;;3.30;;
8462;SDS011;4268;52.506;13.462;2023-08-01T14:43:57;3.17;;;2.97;;
8462;SDS011;4268;52.506;13.462;2023-08-01T14:46:23;3.43;;;3.23;;
8462;SDS011;4268;52.506;13.462;2023-08-01T14:48:48;3.20;;;3.00;;
8462;SDS011;4268;52.506;13.462;2023-08-01T14:51:14;3.10;;;2.90;;
8462;SDS011;4268;52.506;13.462;2023-08-01T14:53:40;3.13;;;2.83;;
8462;SDS011;4268;52.506;13.462;2023-08-01T14:56:05;3.00;;;2.80;;